Cleburne, Texas
Current Conditions -  °F | °C
As of 12:35 PM on Thursday 30 Oct 2014 (Local Time) from KCPT Reporting Station
Scattered Clouds Scattered Clouds  
Wind Chill: 72°   Ceiling: Unl
Heat Index: 72°   Visibility: 10mi
Dew Point: 54°   Wind: 7mph
Humidity: 53%   Direction: 160°SSE
Pressure: 30.16"   Gusts: NA
Location:  32.35°N, 97.39°W
Report Text: KCPT 301735Z AUTO 16006KT 10SM SCT037 22/12 A3016 RMK AO2
Loading
Personal Weather Stations






























Interactive Weather Map
Tropical Storm Tracking
New forecast layout! Learn more

10-Day Weather Forecast

Advertisements
Track Severe Weather on mobile